Evansville Regional Airport
KEVV : now visible

Airfield :











YOU CAN JOIN US ON...

 
LOGIN :

Register | Disclaimer

   EN    FR    IT 

 









Legend :    VFR   Marginal VFR   IFR   Intensive IFR   Very Intensive IFR
Visi :
Ceiling :
>= 8 km
>= 3000ft
5 to 8 km
1000 to 3000 ft
1500m to 5 km
500 to 1000 ft
800 to 1500m
200 to 500 ft
< 800m
< 200 ft
Symbols :   Thunderstorms  Fog  Heavy snow  Heavy precipitations  Wind > 20 kt






- Airport Elevation : 418 ft
- IATA code : EVV


KEVV - Evansville Regional

CURRENT METAR :
  • 171954Z 08013KT 10SM OVC100 01/M07 A3048 RMK AO2 SLP325 T00111067

EXPIRED METARs :
  • 171854Z 12007KT 10SM FEW080 OVC100 01/M07 A3055 RMK AO2 SLP348 T00061067
  • 171754Z 10009KT 10SM BKN100 00/M07 A3058 RMK AO2 PRESFR SLP359 T00001067 10000 21033 58033

TAF KEVV
Valid from the 17 at 18:00 until the 18 at 18:00 UTC


171724Z 1718/1818 10010KT P6SM OVC120
FM180600 16012G20KT 6SM SHRA OVC040
FM181700 25015G27KT 6SM SHRA OVC012



MET'MAP, your aeronautical weather chart ! - Copyright ORBIFLY December 2007 - Disclaimer

ORBIFLY MET'MAP TEAM :

Programming & Development : Alexandra Zaïnal
Concept & original design : Baudouin d'Aumeries
Assistance for programming : Marc-Olivier Méhu
Technical & hardware support : Manuel Goepfert

Contact : metmap@orbifly.com




SOURCES & CREDITS :

   NOAA       Earth
Advisory